White Mountain, Alaska
Current Conditions -  °F | °C
As of 11:10 AM on Saturday 25 Oct 2014 (Local Time) from PAWM Reporting Station
Haze Haze  
Wind Chill: 23°   Ceiling: 400
Heat Index: 34°   Visibility: 4mi
Dew Point: 34°   Wind: 18mph
Humidity: 100%   Direction: 200°SSW
Pressure: 29.58"   Gusts: 23mph
Location:  64.68°N, 163.41°W
Report Text: PAWM 251910Z AUTO 20016G20KT 4SM BR OVC004 01/01 A2958 RMK AO2 FZRANO
Loading
Personal Weather Stations






























Interactive Weather Map
Tropical Storm Tracking
New forecast layout! Learn more

10-Day Weather Forecast

Advertisements
Track Severe Weather on mobile